Aquilla, Alabama
Current Conditions -  °F | °C
As of 4:58 PM on Tuesday 25 Nov 2014 (Local Time) from KMEI Reporting Station
Overcast Overcast  
Wind Chill:   Ceiling: 10000
Heat Index:   Visibility: 10mi
Dew Point: -3°   Wind: 8mph
Humidity: 43%   Direction: 320°NW
Pressure: 30.16"   Gusts: NA
Location:  31.6272°N, 88.354°W
Report Text: KMEI 252258Z 32007KT 10SM OVC100 09/M03 A3016 RMK AO2 SLP212 T00941028
Loading
Personal Weather Stations






























Interactive Weather Map New forecast layout! Learn more

10-Day Weather Forecast

Advertisements
Track Severe Weather on mobile